createdAt,value
2019-05-06T00:01:56.318Z,69.51
2019-05-06T00:04:26.911Z,69.77
2019-05-06T00:06:57.308Z,69.61
2019-05-06T00:09:27.683Z,69.71
2019-05-06T00:11:58.135Z,69.96
2019-05-06T00:14:28.486Z,70.21
2019-05-06T00:16:59.008Z,70.21
2019-05-06T00:19:29.598Z,70.25
2019-05-06T00:22:00.149Z,70.08
2019-05-06T00:24:35.954Z,70.37
2019-05-06T00:27:18.187Z,69.81
2019-05-06T00:29:49.213Z,70.26
2019-05-06T00:32:19.729Z,69.78
2019-05-06T00:34:50.232Z,70.29
2019-05-06T00:37:20.734Z,70.29
2019-05-06T00:40:00.329Z,69.74
2019-05-06T00:42:34.388Z,69.85
2019-05-06T00:45:05.487Z,68.94
2019-05-06T00:47:35.865Z,69.66
2019-05-06T00:50:09.029Z,70.74
2019-05-06T00:52:41.635Z,69.90
2019-05-06T00:55:13.699Z,70.14
2019-05-06T00:57:44.493Z,70.61
2019-05-06T01:00:24.390Z,71.04
2019-05-06T01:02:57.785Z,70.92
2019-05-06T01:05:28.305Z,70.91
2019-05-06T01:07:59.057Z,71.11
2019-05-06T01:10:34.423Z,70.77
2019-05-06T01:13:26.444Z,70.46
2019-05-06T01:15:57.050Z,70.30
2019-05-06T01:18:27.590Z,70.46
2019-05-06T01:21:10.366Z,70.03
2019-05-06T01:23:45.303Z,70.09
2019-05-06T01:26:17.036Z,70.40
2019-05-06T01:28:47.583Z,70.23
2019-05-06T01:31:18.272Z,69.75
2019-05-06T01:33:48.652Z,69.78
2019-05-06T01:36:19.078Z,69.92
2019-05-06T01:38:57.526Z,70.09
2019-05-06T01:41:49.590Z,69.98
2019-05-06T01:44:20.466Z,69.13
2019-05-06T01:46:50.924Z,69.53
2019-05-06T01:49:21.357Z,69.84
2019-05-06T01:51:51.750Z,69.76
2019-05-06T01:54:22.149Z,69.73
2019-05-06T01:56:54.670Z,69.44
2019-05-06T01:59:25.036Z,69.41
2019-05-06T02:02:00.793Z,69.86
2019-05-06T02:04:27.687Z,69.91
2019-05-06T02:06:57.934Z,69.83
2019-05-06T02:09:28.361Z,69.33
2019-05-06T02:11:58.822Z,69.18
2019-05-06T02:14:29.351Z,69.45
2019-05-06T02:16:59.698Z,69.58
2019-05-06T02:19:30.035Z,69.15
2019-05-06T02:22:13.485Z,69.85
2019-05-06T02:24:49.976Z,69.82
2019-05-06T02:27:20.400Z,69.30
2019-05-06T02:29:56.411Z,69.08
2019-05-06T02:32:48.161Z,69.69
2019-05-06T02:35:35.458Z,69.66
2019-05-06T02:38:07.577Z,69.77
2019-05-06T02:40:37.990Z,69.55
2019-05-06T02:43:08.465Z,69.82
2019-05-06T02:45:38.742Z,70.06
2019-05-06T02:48:15.057Z,69.37
2019-05-06T02:51:24.403Z,69.35
2019-05-06T02:53:54.998Z,70.12
2019-05-06T02:56:25.484Z,70.65
2019-05-06T02:58:55.897Z,69.77
2019-05-06T03:01:26.300Z,70.96
2019-05-06T03:03:56.687Z,71.25
2019-05-06T03:06:27.615Z,70.91
2019-05-06T03:08:58.198Z,71.43
2019-05-06T03:11:28.522Z,70.94
2019-05-06T03:13:58.923Z,70.87
2019-05-06T03:16:29.396Z,70.70
2019-05-06T03:18:59.803Z,70.90
2019-05-06T03:21:45.118Z,69.97
2019-05-06T03:24:49.729Z,69.62
2019-05-06T03:27:20.158Z,70.52
2019-05-06T03:29:53.466Z,70.13
2019-05-06T03:32:29.752Z,70.79
2019-05-06T03:35:15.825Z,70.55
2019-05-06T03:37:27.033Z,71.03
2019-05-06T03:39:57.452Z,69.97
2019-05-06T03:42:27.895Z,70.57
2019-05-06T03:45:04.175Z,70.89
2019-05-06T03:47:54.244Z,70.35
2019-05-06T03:50:24.227Z,70.68
2019-05-06T03:52:56.472Z,72.01
2019-05-06T03:55:27.992Z,71.48
2019-05-06T03:57:58.387Z,71.96
2019-05-06T04:00:28.769Z,72.40
2019-05-06T04:02:59.245Z,71.56
2019-05-06T04:05:29.700Z,70.83
2019-05-06T04:08:03.608Z,71.13
2019-05-06T04:10:33.810Z,71.00
2019-05-06T04:13:06.775Z,71.16
2019-05-06T04:16:03.788Z,70.63
2019-05-06T04:18:36.320Z,72.50
2019-05-06T04:21:16.746Z,71.62
2019-05-06T04:23:59.268Z,71.28
2019-05-06T04:26:48.766Z,70.51
2019-05-06T04:29:19.288Z,72.10
2019-05-06T04:31:49.874Z,72.25
2019-05-06T04:34:23.221Z,71.89
2019-05-06T04:36:53.532Z,71.99
2019-05-06T04:39:24.182Z,72.89
2019-05-06T04:41:55.154Z,72.65
2019-05-06T04:44:25.569Z,73.00
2019-05-06T04:46:56.384Z,72.94
2019-05-06T04:49:26.807Z,73.25
2019-05-06T04:51:57.112Z,74.07
2019-05-06T04:54:28.146Z,73.14
2019-05-06T04:56:58.574Z,72.53
2019-05-06T04:59:29.443Z,72.39
2019-05-06T05:02:02.502Z,70.34
2019-05-06T05:04:36.282Z,70.42
2019-05-06T05:07:04.332Z,70.16
2019-05-06T05:09:34.812Z,69.49
2019-05-06T05:12:13.335Z,69.55
2019-05-06T05:14:59.969Z,69.52
2019-05-06T05:17:46.811Z,67.00
2019-05-06T05:20:17.328Z,68.05
2019-05-06T05:22:48.227Z,67.45
2019-05-06T05:25:18.624Z,67.95
2019-05-06T05:27:49.035Z,67.58
2019-05-06T05:30:19.628Z,67.21
2019-05-06T05:32:52.028Z,64.75
2019-05-06T05:35:22.733Z,65.28
2019-05-06T05:37:53.753Z,65.56
2019-05-06T05:40:24.189Z,64.95
2019-05-06T05:43:04.405Z,64.61
2019-05-06T05:45:35.073Z,64.24
2019-05-06T05:48:12.410Z,62.13
2019-05-06T05:50:43.619Z,64.51
2019-05-06T05:53:13.993Z,62.28
2019-05-06T05:55:44.422Z,60.21
2019-05-06T05:58:14.855Z,58.79
2019-05-06T06:00:45.584Z,58.63
2019-05-06T06:03:16.106Z,58.12
2019-05-06T06:05:46.546Z,58.29
2019-05-06T06:08:16.959Z,56.83
2019-05-06T06:11:06.203Z,55.50
2019-05-06T06:13:36.632Z,56.32
2019-05-06T06:16:20.599Z,56.60
2019-05-06T06:19:12.789Z,55.25
2019-05-06T06:21:47.479Z,55.27
2019-05-06T06:24:25.396Z,53.44
2019-05-06T06:26:55.871Z,52.41
2019-05-06T06:29:26.351Z,54.44
2019-05-06T06:32:14.794Z,53.02
2019-05-06T06:35:09.958Z,50.93
2019-05-06T06:38:05.860Z,51.95
2019-05-06T06:40:36.361Z,51.75
2019-05-06T06:43:12.446Z,51.72
2019-05-06T06:45:42.987Z,50.97
2019-05-06T06:48:13.487Z,49.39
2019-05-06T06:50:44.100Z,48.88
2019-05-06T06:53:14.596Z,47.33
2019-05-06T06:55:45.024Z,48.57
2019-05-06T06:58:24.171Z,48.43
2019-05-06T07:01:33.176Z,46.24
2019-05-06T07:04:11.153Z,46.86
2019-05-06T07:06:45.872Z,45.88
2019-05-06T07:09:16.246Z,46.18
2019-05-06T07:11:46.702Z,45.36
2019-05-06T07:14:17.096Z,45.51
2019-05-06T07:16:47.487Z,43.03
2019-05-06T07:19:23.000Z,45.12
2019-05-06T07:21:57.666Z,44.45
2019-05-06T07:24:28.141Z,43.09
2019-05-06T07:27:12.557Z,43.58
2019-05-06T07:29:48.361Z,43.07
2019-05-06T07:32:14.975Z,43.07
2019-05-06T07:34:45.438Z,43.30
2019-05-06T07:37:15.874Z,42.85
2019-05-06T07:39:46.346Z,42.63
2019-05-06T07:42:28.440Z,41.99
2019-05-06T07:45:17.227Z,41.35
2019-05-06T07:47:53.053Z,38.14
2019-05-06T07:50:23.368Z,37.34
2019-05-06T07:53:09.913Z,36.93
2019-05-06T07:55:42.469Z,38.17
2019-05-06T07:58:13.750Z,36.24
2019-05-06T08:00:44.471Z,32.45
2019-05-06T08:03:14.976Z,31.77
2019-05-06T08:05:55.187Z,34.13
2019-05-06T08:08:17.543Z,34.26
2019-05-06T08:10:47.952Z,33.07
2019-05-06T08:13:18.435Z,30.35
2019-05-06T08:15:48.862Z,31.45
2019-05-06T08:18:19.247Z,28.26
2019-05-06T08:20:51.868Z,24.66
2019-05-06T08:23:32.592Z,26.71
2019-05-06T08:26:12.553Z,26.78
2019-05-06T08:28:40.980Z,25.45
2019-05-06T08:31:07.924Z,27.04
2019-05-06T08:33:38.355Z,29.96
2019-05-06T08:36:14.855Z,32.65
2019-05-06T08:38:56.844Z,34.72
2019-05-06T08:41:28.738Z,34.84
2019-05-06T08:43:59.189Z,35.04
2019-05-06T08:46:29.522Z,36.05
2019-05-06T08:48:59.911Z,35.15
2019-05-06T08:51:45.426Z,34.23
2019-05-06T08:54:29.015Z,35.12
2019-05-06T08:56:59.509Z,35.90
2019-05-06T08:59:31.921Z,35.13
2019-05-06T09:02:03.168Z,32.89
2019-05-06T09:04:33.810Z,29.96
2019-05-06T09:07:04.198Z,28.75
2019-05-06T09:09:34.667Z,29.94
2019-05-06T09:12:05.116Z,28.95
2019-05-06T09:14:35.564Z,28.04
2019-05-06T09:17:07.046Z,26.76
2019-05-06T09:19:37.403Z,28.52
2019-05-06T09:22:07.848Z,26.49
2019-05-06T09:24:38.416Z,25.41
2019-05-06T09:27:20.004Z,24.55
2019-05-06T09:29:56.426Z,22.83
2019-05-06T09:32:36.008Z,23.68
2019-05-06T09:35:07.996Z,23.56
2019-05-06T09:37:38.423Z,23.92
2019-05-06T09:40:12.687Z,24.56
2019-05-06T09:42:43.286Z,24.66
2019-05-06T09:45:13.911Z,25.52
2019-05-06T09:48:06.129Z,27.54
2019-05-06T09:50:46.034Z,27.37
2019-05-06T09:53:22.954Z,28.55
2019-05-06T09:56:13.022Z,30.08
2019-05-06T09:58:44.429Z,27.82
2019-05-06T10:01:15.976Z,29.15
2019-05-06T10:03:46.374Z,27.97
2019-05-06T10:06:16.803Z,27.90
2019-05-06T10:08:47.142Z,26.09
2019-05-06T10:11:17.649Z,25.88
2019-05-06T10:13:48.150Z,24.99
2019-05-06T10:16:18.640Z,25.13
2019-05-06T10:18:49.070Z,27.29
2019-05-06T10:21:19.519Z,28.69
2019-05-06T10:23:50.098Z,29.82
2019-05-06T10:26:20.540Z,30.11
2019-05-06T10:28:57.449Z,30.44
2019-05-06T10:31:29.553Z,31.51
2019-05-06T10:34:13.934Z,30.13
2019-05-06T10:37:18.044Z,31.21
2019-05-06T10:39:43.449Z,31.18
2019-05-06T10:42:19.509Z,29.34
2019-05-06T10:45:27.856Z,27.31
2019-05-06T10:47:59.043Z,28.74
2019-05-06T10:50:33.007Z,31.46
2019-05-06T10:53:23.046Z,30.18
2019-05-06T10:55:57.908Z,28.55
2019-05-06T10:58:28.389Z,27.43
2019-05-06T11:01:12.292Z,26.90
2019-05-06T11:03:42.154Z,25.16
2019-05-06T11:06:13.130Z,24.62
2019-05-06T11:08:43.756Z,21.23
2019-05-06T11:11:20.039Z,20.56
2019-05-06T11:13:46.415Z,21.42
2019-05-06T11:16:17.143Z,22.55
2019-05-06T11:18:47.629Z,23.73
2019-05-06T11:21:18.025Z,24.23
2019-05-06T11:23:48.483Z,26.88
2019-05-06T11:26:18.953Z,29.61
2019-05-06T11:28:53.170Z,29.64
2019-05-06T11:31:46.906Z,31.22
2019-05-06T11:34:48.355Z,32.65
2019-05-06T11:37:19.877Z,33.46
2019-05-06T11:39:52.628Z,33.15
2019-05-06T11:42:28.918Z,34.53
2019-05-06T11:44:54.785Z,35.51
2019-05-06T11:47:25.238Z,34.99
2019-05-06T11:49:57.471Z,35.23
2019-05-06T11:52:28.183Z,35.28
2019-05-06T11:54:58.466Z,34.66
2019-05-06T11:57:29.014Z,34.19
2019-05-06T11:59:59.524Z,35.14
2019-05-06T12:02:29.944Z,34.36
2019-05-06T12:05:02.343Z,34.83
2019-05-06T12:07:33.243Z,34.16
2019-05-06T12:10:03.821Z,34.76
2019-05-06T12:12:34.249Z,34.10
2019-05-06T12:15:07.219Z,34.75
2019-05-06T12:17:37.288Z,33.46
2019-05-06T12:20:08.492Z,34.80
2019-05-06T12:22:38.992Z,34.97
2019-05-06T12:25:12.673Z,34.50
2019-05-06T12:27:45.494Z,34.43
2019-05-06T12:30:23.289Z,33.90
2019-05-06T12:33:13.011Z,34.81
2019-05-06T12:35:47.406Z,32.97
2019-05-06T12:38:30.698Z,32.37
2019-05-06T12:40:59.991Z,32.51
2019-05-06T12:43:43.040Z,32.96
2019-05-06T12:46:22.553Z,32.42
2019-05-06T12:48:53.039Z,31.38
2019-05-06T12:51:23.492Z,31.47
2019-05-06T12:53:53.830Z,30.90
2019-05-06T12:56:24.930Z,30.78
2019-05-06T12:58:55.281Z,27.76
2019-05-06T13:01:25.679Z,29.50
2019-05-06T13:03:56.126Z,26.40
2019-05-06T13:06:26.724Z,28.22
2019-05-06T13:09:01.847Z,29.31
2019-05-06T13:11:29.305Z,27.31
2019-05-06T13:14:01.020Z,28.69
2019-05-06T13:16:33.497Z,27.46
2019-05-06T13:19:03.928Z,27.45
2019-05-06T13:21:34.519Z,25.92
2019-05-06T13:24:06.231Z,26.61
2019-05-06T13:26:36.714Z,27.37
2019-05-06T13:29:16.322Z,28.67
2019-05-06T13:31:46.768Z,29.78
2019-05-06T13:34:18.882Z,30.74
2019-05-06T13:36:49.644Z,32.57
2019-05-06T13:39:20.133Z,34.84
2019-05-06T13:41:52.686Z,36.13
2019-05-06T13:44:23.058Z,35.60
2019-05-06T13:46:55.114Z,36.86
2019-05-06T13:49:35.929Z,36.74
2019-05-06T13:52:08.672Z,36.53
2019-05-06T13:54:39.052Z,35.81
2019-05-06T13:57:09.510Z,36.29
2019-05-06T13:59:39.826Z,35.69
2019-05-06T14:02:43.626Z,35.46
2019-05-06T14:05:14.018Z,34.57
2019-05-06T14:07:44.533Z,34.57
2019-05-06T14:10:15.388Z,33.30
2019-05-06T14:12:45.826Z,33.64
2019-05-06T14:15:17.255Z,35.94
2019-05-06T14:17:47.721Z,36.24
2019-05-06T14:20:18.435Z,36.32
2019-05-06T14:22:48.921Z,35.96
2019-05-06T14:25:52.686Z,35.42
2019-05-06T14:28:47.265Z,36.60
2019-05-06T14:31:36.571Z,37.32
2019-05-06T14:34:07.003Z,36.60
2019-05-06T14:36:37.394Z,38.08
2019-05-06T14:39:14.254Z,39.03
2019-05-06T14:41:46.731Z,39.52
2019-05-06T14:44:17.081Z,41.04
2019-05-06T14:46:59.867Z,41.89
2019-05-06T14:49:32.366Z,43.39
2019-05-06T14:52:02.840Z,43.70
2019-05-06T14:54:35.144Z,44.01
2019-05-06T14:57:12.774Z,44.44
2019-05-06T14:59:43.216Z,43.64
2019-05-06T15:02:13.629Z,43.50
2019-05-06T15:04:44.089Z,42.69
2019-05-06T15:07:14.504Z,41.16
2019-05-06T15:09:58.087Z,41.80
2019-05-06T15:12:16.936Z,42.26
2019-05-06T15:14:47.398Z,42.19
2019-05-06T15:17:17.930Z,42.50
2019-05-06T15:19:48.386Z,42.70
2019-05-06T15:22:18.965Z,42.42
2019-05-06T15:24:49.353Z,43.67
2019-05-06T15:27:19.784Z,42.38
2019-05-06T15:29:53.286Z,41.26
2019-05-06T15:32:28.386Z,40.75
2019-05-06T15:35:05.898Z,42.15
2019-05-06T15:37:42.990Z,39.96
2019-05-06T15:40:13.648Z,40.01
2019-05-06T15:42:44.043Z,40.12
2019-05-06T15:45:14.717Z,41.43
2019-05-06T15:47:45.655Z,38.73
2019-05-06T15:50:16.312Z,38.23
2019-05-06T15:52:46.723Z,38.02
2019-05-06T15:55:17.178Z,36.30
2019-05-06T15:57:47.614Z,35.64
2019-05-06T16:00:22.561Z,35.39
2019-05-06T16:02:53.310Z,34.76
2019-05-06T16:05:26.309Z,34.81
2019-05-06T16:07:56.069Z,36.52
2019-05-06T16:10:26.505Z,36.38
2019-05-06T16:12:56.963Z,36.76
2019-05-06T16:15:27.331Z,36.54
2019-05-06T16:17:57.688Z,37.73
2019-05-06T16:20:28.196Z,40.15
2019-05-06T16:23:14.084Z,37.45
2019-05-06T16:25:44.869Z,40.58
2019-05-06T16:28:15.396Z,38.99
2019-05-06T16:30:45.836Z,38.74
2019-05-06T16:33:18.840Z,39.05
2019-05-06T16:35:48.384Z,39.90
2019-05-06T16:38:18.895Z,39.57
2019-05-06T16:40:49.327Z,39.95
2019-05-06T16:43:21.987Z,40.27
2019-05-06T16:45:53.197Z,41.36
2019-05-06T16:48:24.164Z,41.82
2019-05-06T16:50:54.570Z,42.98
2019-05-06T16:53:24.937Z,43.39
2019-05-06T16:56:07.035Z,42.52
2019-05-06T16:58:40.148Z,44.17
2019-05-06T17:01:14.894Z,44.87
2019-05-06T17:04:20.162Z,45.21
2019-05-06T17:06:52.406Z,44.99
2019-05-06T17:09:27.081Z,43.88
2019-05-06T17:11:55.199Z,44.21
2019-05-06T17:14:25.666Z,45.88
2019-05-06T17:16:56.266Z,45.97
2019-05-06T17:19:26.721Z,45.92
2019-05-06T17:21:57.157Z,47.85
2019-05-06T17:24:27.561Z,47.73
2019-05-06T17:26:58.572Z,47.71
2019-05-06T17:29:46.341Z,47.95
2019-05-06T17:32:44.821Z,48.51
2019-05-06T17:35:17.572Z,48.32
2019-05-06T17:38:04.442Z,48.46
2019-05-06T17:40:34.909Z,48.81
2019-05-06T17:43:05.337Z,49.37
2019-05-06T17:46:02.365Z,50.02
2019-05-06T17:48:42.455Z,48.79
2019-05-06T17:51:14.742Z,49.29
2019-05-06T17:53:48.462Z,49.09
2019-05-06T17:56:18.878Z,48.87
2019-05-06T17:58:49.332Z,49.43
2019-05-06T18:01:23.626Z,50.37
2019-05-06T18:03:54.152Z,49.41
2019-05-06T18:06:24.693Z,50.79
2019-05-06T18:08:54.988Z,51.62
2019-05-06T18:11:25.438Z,52.47
2019-05-06T18:13:55.796Z,52.87
2019-05-06T18:16:26.269Z,54.45
2019-05-06T18:18:56.630Z,54.67
2019-05-06T18:21:27.159Z,55.71
2019-05-06T18:23:57.478Z,57.02
2019-05-06T18:26:29.906Z,57.63
2019-05-06T18:29:00.376Z,58.79
2019-05-06T18:31:32.886Z,59.23
2019-05-06T18:34:06.141Z,58.97
2019-05-06T18:36:35.156Z,59.88
2019-05-06T18:39:07.353Z,60.11
2019-05-06T18:41:38.005Z,61.13
2019-05-06T18:44:08.370Z,61.59
2019-05-06T18:46:39.035Z,61.15
2019-05-06T18:49:09.451Z,62.11
2019-05-06T18:51:39.818Z,60.70
2019-05-06T18:54:12.378Z,61.66
2019-05-06T18:56:43.121Z,63.17
2019-05-06T18:59:13.646Z,63.08
2019-05-06T19:01:44.065Z,64.00
2019-05-06T19:04:29.237Z,64.72
2019-05-06T19:07:12.322Z,64.33
2019-05-06T19:09:49.456Z,64.83
2019-05-06T19:12:29.279Z,65.21
2019-05-06T19:14:52.536Z,65.07
2019-05-06T19:17:23.455Z,65.68
2019-05-06T19:19:53.951Z,65.55
2019-05-06T19:22:24.364Z,66.55
2019-05-06T19:24:54.802Z,66.92
2019-05-06T19:27:25.230Z,66.83
2019-05-06T19:29:55.587Z,66.94
2019-05-06T19:32:27.982Z,66.58
2019-05-06T19:34:58.443Z,66.44
2019-05-06T19:37:28.789Z,66.22
2019-05-06T19:39:59.150Z,66.66
2019-05-06T19:42:42.211Z,66.72
2019-05-06T19:45:02.540Z,67.46
2019-05-06T19:47:34.172Z,67.56
2019-05-06T19:50:04.794Z,67.89
2019-05-06T19:52:35.248Z,68.01
2019-05-06T19:55:06.368Z,67.26
2019-05-06T19:57:36.815Z,67.53
2019-05-06T20:00:07.527Z,67.33
2019-05-06T20:02:37.942Z,67.39
2019-05-06T20:05:15.735Z,67.20
2019-05-06T20:08:04.152Z,67.30
2019-05-06T20:10:52.899Z,67.54
2019-05-06T20:13:23.371Z,67.93
2019-05-06T20:15:53.964Z,68.09
2019-05-06T20:18:24.462Z,67.75
2019-05-06T20:20:54.750Z,67.18
2019-05-06T20:23:25.205Z,67.95
2019-05-06T20:25:55.520Z,67.76
2019-05-06T20:28:26.019Z,67.91
2019-05-06T20:30:56.450Z,67.74
2019-05-06T20:33:26.860Z,68.58
2019-05-06T20:35:57.290Z,68.60
2019-05-06T20:38:27.856Z,68.63
2019-05-06T20:40:58.277Z,69.22
2019-05-06T20:43:28.613Z,69.48
2019-05-06T20:45:58.984Z,70.04
2019-05-06T20:48:29.408Z,69.94
2019-05-06T20:50:59.870Z,70.98
2019-05-06T20:53:32.453Z,71.50
2019-05-06T20:56:02.866Z,72.07
2019-05-06T20:58:33.312Z,72.38
2019-05-06T21:01:03.699Z,72.00
2019-05-06T21:03:34.083Z,72.58
2019-05-06T21:06:04.565Z,73.80
2019-05-06T21:08:34.914Z,73.92
2019-05-06T21:11:05.292Z,73.44
2019-05-06T21:13:35.763Z,73.26
2019-05-06T21:16:06.192Z,72.21
2019-05-06T21:18:36.637Z,75.03
2019-05-06T21:21:06.982Z,73.45
2019-05-06T21:23:37.377Z,74.23
2019-05-06T21:26:07.842Z,74.00
2019-05-06T21:28:38.255Z,74.54
2019-05-06T21:31:08.738Z,74.82
2019-05-06T21:33:39.124Z,74.33
2019-05-06T21:36:09.598Z,73.32
2019-05-06T21:38:40.065Z,73.56
2019-05-06T21:41:12.393Z,73.46
2019-05-06T21:43:49.077Z,73.34
2019-05-06T21:46:14.924Z,72.88
2019-05-06T21:48:45.332Z,72.67
2019-05-06T21:51:15.723Z,72.27
2019-05-06T21:53:46.131Z,72.43
2019-05-06T21:56:16.645Z,72.56
2019-05-06T21:58:46.995Z,71.96
2019-05-06T22:01:17.469Z,71.89
2019-05-06T22:03:50.670Z,71.78
2019-05-06T22:06:22.488Z,72.31
2019-05-06T22:08:53.077Z,72.98
2019-05-06T22:11:24.530Z,72.54
2019-05-06T22:14:01.147Z,72.61
2019-05-06T22:16:27.040Z,72.97
2019-05-06T22:18:57.575Z,73.54
2019-05-06T22:21:28.025Z,74.15
2019-05-06T22:23:59.536Z,74.09
2019-05-06T22:26:32.440Z,74.04
2019-05-06T22:29:03.109Z,73.84
2019-05-06T22:31:33.571Z,73.95
2019-05-06T22:34:03.994Z,74.23
2019-05-06T22:36:34.451Z,74.15
2019-05-06T22:39:06.531Z,73.84
2019-05-06T22:41:36.947Z,74.46
2019-05-06T22:44:13.656Z,74.79
2019-05-06T22:46:39.464Z,74.88
2019-05-06T22:49:09.887Z,75.51
2019-05-06T22:51:42.483Z,76.04
2019-05-06T22:54:12.458Z,76.39
2019-05-06T22:56:42.901Z,76.63
2019-05-06T22:59:13.330Z,76.59
2019-05-06T23:01:59.655Z,76.42
2019-05-06T23:04:32.419Z,76.92
2019-05-06T23:07:04.807Z,76.64
2019-05-06T23:09:35.116Z,76.91
2019-05-06T23:12:05.714Z,77.48
2019-05-06T23:14:37.351Z,77.07
2019-05-06T23:17:07.825Z,78.06
2019-05-06T23:19:38.217Z,77.63
2019-05-06T23:22:08.544Z,77.55
2019-05-06T23:24:38.967Z,78.31
2019-05-06T23:27:09.241Z,78.71
2019-05-06T23:29:39.595Z,79.56
2019-05-06T23:32:13.786Z,79.65
2019-05-06T23:34:43.261Z,80.19
2019-05-06T23:37:22.926Z,79.68
2019-05-06T23:40:46.946Z,79.44
2019-05-06T23:44:12.535Z,78.45
2019-05-06T23:47:37.454Z,79.48
2019-05-06T23:51:01.835Z,78.93
2019-05-06T23:54:26.580Z,78.37
2019-05-06T23:56:54.700Z,78.90
2019-05-06T23:59:25.148Z,80.46
